createdAt,value
2017-12-21T00:00:22.943Z,46.83
2017-12-21T00:02:50.584Z,42.13
2017-12-21T00:05:17.898Z,51.70
2017-12-21T00:07:45.325Z,39.63
2017-12-21T00:10:12.959Z,39.63
2017-12-21T00:12:40.270Z,45.70
2017-12-21T00:15:07.731Z,42.43
2017-12-21T00:17:35.135Z,39.37
2017-12-21T00:20:02.766Z,31.90
2017-12-21T00:22:36.006Z,38.67
2017-12-21T00:25:03.623Z,36.27
2017-12-21T00:27:30.945Z,32.37
2017-12-21T00:29:58.395Z,35.60
2017-12-21T00:32:25.706Z,37.37
2017-12-21T00:34:53.351Z,30.20
2017-12-21T00:37:20.703Z,32.57
2017-12-21T00:39:48.183Z,30.10
2017-12-21T00:42:15.831Z,32.33
2017-12-21T00:44:43.214Z,30.00
2017-12-21T00:47:10.888Z,25.97
2017-12-21T00:49:38.507Z,29.60
2017-12-21T00:52:05.878Z,26.40
2017-12-21T00:54:33.519Z,30.77
2017-12-21T00:57:00.858Z,28.23
2017-12-21T00:59:28.286Z,30.13
2017-12-21T01:01:55.604Z,27.37
2017-12-21T01:04:23.251Z,30.50
2017-12-21T01:06:50.598Z,26.30
2017-12-21T01:09:17.950Z,25.07
2017-12-21T01:11:45.363Z,20.87
2017-12-21T01:14:12.688Z,25.50
2017-12-21T01:16:40.467Z,25.40
2017-12-21T01:19:08.127Z,28.57
2017-12-21T01:21:35.758Z,23.93
2017-12-21T01:24:03.086Z,25.47
2017-12-21T01:26:30.703Z,21.17
2017-12-21T01:28:58.207Z,22.47
2017-12-21T01:31:25.524Z,20.60
2017-12-21T01:33:52.903Z,27.00
2017-12-21T01:36:20.603Z,26.00
2017-12-21T01:38:47.918Z,27.00
2017-12-21T01:41:15.663Z,27.00
2017-12-21T01:43:42.988Z,25.97
2017-12-21T01:46:10.682Z,24.40
2017-12-21T01:48:37.998Z,26.07
2017-12-21T01:51:05.661Z,28.30
2017-12-21T01:53:33.359Z,30.33
2017-12-21T01:56:00.700Z,26.70
2017-12-21T01:58:28.329Z,27.07
2017-12-21T02:00:55.704Z,23.10
2017-12-21T02:03:23.367Z,22.80
2017-12-21T02:05:50.682Z,21.40
2017-12-21T02:08:18.406Z,22.83
2017-12-21T02:10:45.714Z,18.70
2017-12-21T02:13:13.068Z,20.17
2017-12-21T02:15:40.436Z,22.23
2017-12-21T02:18:08.082Z,23.37
2017-12-21T02:20:35.423Z,23.77
2017-12-21T02:23:02.790Z,17.70
2017-12-21T02:25:30.098Z,19.83
2017-12-21T02:27:57.410Z,20.20
2017-12-21T02:30:25.244Z,16.50
2017-12-21T02:32:52.658Z,19.87
2017-12-21T02:35:20.346Z,19.03
2017-12-21T02:37:48.052Z,20.33
2017-12-21T02:40:15.383Z,16.13
2017-12-21T02:42:43.085Z,20.03
2017-12-21T02:45:10.732Z,17.37
2017-12-21T02:47:38.082Z,14.33
2017-12-21T02:50:05.441Z,18.87
2017-12-21T02:52:33.114Z,16.43
2017-12-21T02:55:00.475Z,16.83
2017-12-21T02:57:28.103Z,15.63
2017-12-21T02:59:55.550Z,15.70
2017-12-21T03:02:23.260Z,14.03
2017-12-21T03:04:50.891Z,16.03
2017-12-21T03:07:18.239Z,11.50
2017-12-21T03:09:45.626Z,11.20
2017-12-21T03:12:13.260Z,11.03
2017-12-21T03:14:40.618Z,11.47
2017-12-21T03:17:07.926Z,12.23
2017-12-21T03:19:35.238Z,13.53
2017-12-21T03:22:02.923Z,17.70
2017-12-21T03:24:30.639Z,13.10
2017-12-21T03:26:58.332Z,12.50
2017-12-21T03:29:25.688Z,14.00
2017-12-21T03:31:53.011Z,11.93
2017-12-21T03:34:20.387Z,13.30
2017-12-21T03:36:48.082Z,14.03
2017-12-21T03:39:15.415Z,13.07
2017-12-21T03:41:43.059Z,12.20
2017-12-21T03:44:10.419Z,13.03
2017-12-21T03:46:37.738Z,12.23
2017-12-21T03:49:05.427Z,13.93
2017-12-21T03:51:32.793Z,13.50
2017-12-21T03:54:00.460Z,15.77
2017-12-21T03:56:27.777Z,16.30
2017-12-21T03:58:55.501Z,13.33
2017-12-21T04:01:23.116Z,14.07
2017-12-21T04:03:50.846Z,14.70
2017-12-21T04:06:18.204Z,12.93
2017-12-21T04:08:46.108Z,16.70
2017-12-21T04:11:13.419Z,16.93
2017-12-21T04:13:41.359Z,20.03
2017-12-21T04:16:09.185Z,17.00
2017-12-21T04:18:37.043Z,15.00
2017-12-21T04:21:04.979Z,13.97
2017-12-21T04:23:32.281Z,18.63
2017-12-21T04:25:59.599Z,23.80
2017-12-21T04:28:27.553Z,20.33
2017-12-21T04:30:54.863Z,21.43
2017-12-21T04:33:22.172Z,18.17
2017-12-21T04:35:50.192Z,23.33
2017-12-21T04:38:18.038Z,20.40
2017-12-21T04:40:45.963Z,17.60
2017-12-21T04:43:13.285Z,26.27
2017-12-21T04:45:40.927Z,21.13
2017-12-21T04:48:08.317Z,23.27
2017-12-21T04:50:35.943Z,22.70
2017-12-21T04:53:03.267Z,22.37
2017-12-21T04:55:31.019Z,21.17
2017-12-21T04:57:58.359Z,19.80
2017-12-21T05:00:25.728Z,20.83
2017-12-21T05:02:53.046Z,29.57
2017-12-21T05:05:20.734Z,22.83
2017-12-21T05:07:48.095Z,22.03
2017-12-21T05:10:15.411Z,21.73
2017-12-21T05:12:43.063Z,21.33
2017-12-21T05:15:10.428Z,17.70
2017-12-21T05:17:37.897Z,21.07
2017-12-21T05:22:42.194Z,18.10
2017-12-21T05:25:09.878Z,17.60
2017-12-21T05:27:37.238Z,22.33
2017-12-21T05:30:04.738Z,18.57
2017-12-21T05:32:32.111Z,18.60
2017-12-21T05:34:59.779Z,22.47
2017-12-21T05:37:27.090Z,22.20
2017-12-21T05:39:54.466Z,19.40
2017-12-21T05:42:22.158Z,19.97
2017-12-21T05:44:49.476Z,24.63
2017-12-21T05:47:16.835Z,22.30
2017-12-21T05:49:44.543Z,19.80
2017-12-21T05:52:11.861Z,21.33
2017-12-21T05:54:39.394Z,22.43
2017-12-21T05:57:06.719Z,25.17
2017-12-21T05:59:34.358Z,21.80
2017-12-21T06:02:01.707Z,25.80
2017-12-21T06:04:29.403Z,27.43
2017-12-21T06:06:56.831Z,23.57
2017-12-21T06:09:24.211Z,28.83
2017-12-21T06:11:51.959Z,20.80
2017-12-21T06:14:19.282Z,20.47
2017-12-21T06:16:47.105Z,25.70
2017-12-21T06:19:14.467Z,24.03
2017-12-21T06:21:41.842Z,23.10
2017-12-21T06:24:09.163Z,22.20
2017-12-21T06:26:36.571Z,24.30
2017-12-21T06:29:04.254Z,21.13
2017-12-21T06:31:31.566Z,23.83
2017-12-21T06:33:59.083Z,20.80
2017-12-21T06:36:26.750Z,18.30
2017-12-21T06:38:54.386Z,20.07
2017-12-21T06:41:21.782Z,20.20
2017-12-21T06:43:49.422Z,22.07
2017-12-21T06:46:17.090Z,19.13
2017-12-21T06:48:44.728Z,21.73
2017-12-21T06:51:12.034Z,21.77
2017-12-21T06:53:39.419Z,15.87
2017-12-21T06:56:06.779Z,16.40
2017-12-21T06:58:34.582Z,20.37
2017-12-21T07:01:02.227Z,14.83
2017-12-21T07:03:29.566Z,20.23
2017-12-21T07:05:56.883Z,17.60
2017-12-21T07:08:24.189Z,17.33
2017-12-21T07:10:51.526Z,21.47
2017-12-21T07:13:18.835Z,18.33
2017-12-21T07:15:46.143Z,16.97
2017-12-21T07:18:13.616Z,16.97
2017-12-21T07:20:41.251Z,13.83
2017-12-21T07:23:08.577Z,17.77
2017-12-21T07:25:35.959Z,17.90
2017-12-21T07:28:03.267Z,19.20
2017-12-21T07:30:30.903Z,18.93
2017-12-21T07:32:58.590Z,14.90
2017-12-21T07:35:26.237Z,19.00
2017-12-21T07:37:53.714Z,19.87
2017-12-21T07:40:21.077Z,23.43
2017-12-21T07:42:48.400Z,19.93
2017-12-21T07:45:16.051Z,19.50
2017-12-21T07:47:43.751Z,19.73
2017-12-21T07:50:11.675Z,23.70
2017-12-21T07:52:39.043Z,25.10
2017-12-21T07:55:06.724Z,21.37
2017-12-21T07:57:34.050Z,27.53
2017-12-21T08:00:02.293Z,25.47
2017-12-21T08:02:29.683Z,24.10
2017-12-21T08:04:57.203Z,22.17
2017-12-21T08:07:24.513Z,23.97
2017-12-21T08:09:51.912Z,29.50
2017-12-21T08:12:19.284Z,26.00
2017-12-21T08:14:46.603Z,20.63
2017-12-21T08:17:13.967Z,22.17
2017-12-21T08:19:41.285Z,24.50
2017-12-21T08:22:08.638Z,23.00
2017-12-21T08:24:36.078Z,19.93
2017-12-21T08:30:01.483Z,21.57
2017-12-21T08:32:28.972Z,22.90
2017-12-21T08:34:56.307Z,23.30
2017-12-21T08:37:23.662Z,22.60
2017-12-21T08:39:51.036Z,23.53
2017-12-21T08:42:18.675Z,25.47
2017-12-21T08:44:46.043Z,29.60
2017-12-21T08:47:13.620Z,24.90
2017-12-21T08:49:41.258Z,23.73
2017-12-21T08:52:08.595Z,23.93
2017-12-21T08:54:36.274Z,21.23
2017-12-21T08:57:03.587Z,28.63
2017-12-21T08:59:31.030Z,23.27
2017-12-21T09:01:59.261Z,23.60
2017-12-21T09:04:28.033Z,20.87
2017-12-21T09:06:57.169Z,22.80
2017-12-21T09:09:26.942Z,18.60
2017-12-21T09:11:55.222Z,19.70
2017-12-21T09:14:24.455Z,17.63
2017-12-21T09:16:51.995Z,17.80
2017-12-21T09:19:19.307Z,20.30
2017-12-21T09:21:47.018Z,18.70
2017-12-21T09:24:14.689Z,18.17
2017-12-21T09:26:42.320Z,17.40
2017-12-21T09:29:09.704Z,20.17
2017-12-21T09:31:37.335Z,17.27
2017-12-21T09:34:04.659Z,13.07
2017-12-21T09:36:31.992Z,14.57
2017-12-21T09:38:59.604Z,18.30
2017-12-21T09:41:26.955Z,15.60
2017-12-21T09:43:54.434Z,16.20
2017-12-21T09:46:21.743Z,12.90
2017-12-21T09:48:49.166Z,13.83
2017-12-21T09:51:16.782Z,14.87
2017-12-21T09:53:44.447Z,12.17
2017-12-21T09:56:11.784Z,12.83
2017-12-21T09:58:39.500Z,16.53
2017-12-21T10:01:07.166Z,15.97
2017-12-21T10:03:34.803Z,12.90
2017-12-21T10:06:02.178Z,13.40
2017-12-21T10:08:29.703Z,12.43
2017-12-21T10:10:57.011Z,14.47
2017-12-21T10:13:24.354Z,14.70
2017-12-21T10:15:51.670Z,16.90
2017-12-21T10:18:18.978Z,13.90
2017-12-21T10:20:46.311Z,14.50
2017-12-21T10:23:13.934Z,12.53
2017-12-21T10:25:41.290Z,15.50
2017-12-21T10:28:08.626Z,12.27
2017-12-21T10:30:36.114Z,13.67
2017-12-21T10:33:03.491Z,12.90
2017-12-21T10:35:31.114Z,13.67
2017-12-21T10:37:58.499Z,15.63
2017-12-21T10:40:27.079Z,11.33
2017-12-21T10:42:54.570Z,13.23
2017-12-21T10:45:21.910Z,12.03
2017-12-21T10:47:49.470Z,14.17
2017-12-21T10:50:16.819Z,13.70
2017-12-21T10:52:44.441Z,16.57
2017-12-21T10:55:11.742Z,13.63
2017-12-21T10:57:39.094Z,15.00
2017-12-21T11:00:06.416Z,15.37
2017-12-21T11:02:33.879Z,13.30
2017-12-21T11:05:01.580Z,14.43
2017-12-21T11:07:28.885Z,14.57
2017-12-21T11:09:57.385Z,15.63
2017-12-21T11:12:25.048Z,14.37
2017-12-21T11:14:52.742Z,15.67
2017-12-21T11:17:20.355Z,14.10
2017-12-21T11:19:48.023Z,13.70
2017-12-21T11:22:15.662Z,17.40
2017-12-21T11:24:42.998Z,14.37
2017-12-21T11:27:10.723Z,14.40
2017-12-21T11:29:38.342Z,15.90
2017-12-21T11:32:05.654Z,15.13
2017-12-21T11:34:33.042Z,14.67
2017-12-21T11:37:00.707Z,16.60
2017-12-21T11:39:28.375Z,12.40
2017-12-21T11:41:55.712Z,18.73
2017-12-21T11:44:23.440Z,15.83
2017-12-21T11:46:51.055Z,14.80
2017-12-21T11:49:18.395Z,15.00
2017-12-21T11:51:46.097Z,14.90
2017-12-21T11:54:13.783Z,15.10
2017-12-21T11:56:41.102Z,15.57
2017-12-21T11:59:08.471Z,15.27
2017-12-21T12:01:35.783Z,15.93
2017-12-21T12:04:03.496Z,19.00
2017-12-21T12:06:31.119Z,15.07
2017-12-21T12:08:58.777Z,17.00
2017-12-21T12:11:26.244Z,15.70
2017-12-21T12:13:53.546Z,16.70
2017-12-21T12:16:20.870Z,23.00
2017-12-21T12:18:48.535Z,20.83
2017-12-21T12:21:16.161Z,14.60
2017-12-21T12:23:43.826Z,18.20
2017-12-21T12:26:11.231Z,16.13
2017-12-21T12:28:38.847Z,14.97
2017-12-21T12:31:06.167Z,15.53
2017-12-21T12:33:33.907Z,15.60
2017-12-21T12:36:01.518Z,15.70
2017-12-21T12:38:28.901Z,18.50
2017-12-21T12:40:56.614Z,18.20
2017-12-21T12:43:24.302Z,16.53
2017-12-21T12:45:51.971Z,15.87
2017-12-21T12:48:19.340Z,17.17
2017-12-21T12:50:47.102Z,20.50
2017-12-21T12:53:14.418Z,19.23
2017-12-21T12:55:42.086Z,13.53
2017-12-21T12:58:09.400Z,18.13
2017-12-21T13:00:37.013Z,18.13
2017-12-21T13:03:04.375Z,21.37
2017-12-21T13:05:31.695Z,15.80
2017-12-21T13:07:59.387Z,16.70
2017-12-21T13:10:27.116Z,15.57
2017-12-21T13:12:54.442Z,17.03
2017-12-21T13:15:22.602Z,15.83
2017-12-21T13:17:50.117Z,16.70
2017-12-21T13:20:17.826Z,17.60
2017-12-21T13:22:45.462Z,19.50
2017-12-21T13:25:12.842Z,16.67
2017-12-21T13:27:40.483Z,17.60
2017-12-21T13:30:07.819Z,19.13
2017-12-21T13:32:35.175Z,17.37
2017-12-21T13:35:02.859Z,15.43
2017-12-21T13:37:30.158Z,20.13
2017-12-21T13:39:57.518Z,18.03
2017-12-21T13:42:25.225Z,17.97
2017-12-21T13:44:52.525Z,15.77
2017-12-21T13:47:19.872Z,18.80
2017-12-21T13:49:47.186Z,20.07
2017-12-21T13:52:14.526Z,16.47
2017-12-21T13:54:42.218Z,17.90
2017-12-21T13:57:09.898Z,16.60
2017-12-21T13:59:37.539Z,19.93
2017-12-21T14:02:04.881Z,17.63
2017-12-21T14:04:32.230Z,19.87
2017-12-21T14:06:59.542Z,17.30
2017-12-21T14:09:26.854Z,18.37
2017-12-21T14:11:54.522Z,19.20
2017-12-21T14:14:22.161Z,16.20
2017-12-21T14:16:49.535Z,19.20
2017-12-21T14:19:17.223Z,18.90
2017-12-21T14:21:44.531Z,19.10
2017-12-21T14:24:11.842Z,19.73
2017-12-21T14:26:39.199Z,17.93
2017-12-21T14:29:06.507Z,20.17
2017-12-21T14:31:33.874Z,18.20
2017-12-21T14:34:01.550Z,17.77
2017-12-21T14:36:29.167Z,18.90
2017-12-21T14:38:56.474Z,16.67
2017-12-21T14:41:23.823Z,17.33
2017-12-21T14:43:51.134Z,18.13
2017-12-21T14:46:18.444Z,20.73
2017-12-21T14:48:45.775Z,20.13
2017-12-21T14:51:13.450Z,17.27
2017-12-21T14:53:40.774Z,13.57
2017-12-21T14:56:08.420Z,19.37
2017-12-21T14:58:35.799Z,20.90
2017-12-21T15:01:03.773Z,20.50
2017-12-21T15:03:31.439Z,18.60
2017-12-21T15:05:59.139Z,15.53
2017-12-21T15:08:26.558Z,18.03
2017-12-21T15:10:54.235Z,17.80
2017-12-21T15:13:21.584Z,17.97
2017-12-21T15:15:49.287Z,19.30
2017-12-21T15:18:16.970Z,18.70
2017-12-21T15:20:44.324Z,20.73
2017-12-21T15:23:11.690Z,15.93
2017-12-21T15:25:39.351Z,19.13
2017-12-21T15:28:07.032Z,18.70
2017-12-21T15:30:34.368Z,20.20
2017-12-21T15:33:02.012Z,20.17
2017-12-21T15:35:29.358Z,17.57
2017-12-21T15:37:56.666Z,21.67
2017-12-21T15:40:23.978Z,22.13
2017-12-21T15:42:51.394Z,21.07
2017-12-21T15:45:18.693Z,21.70
2017-12-21T15:47:46.025Z,21.80
2017-12-21T15:50:13.370Z,20.03
2017-12-21T15:52:41.047Z,20.23
2017-12-21T15:55:08.410Z,21.57
2017-12-21T15:57:36.128Z,17.13
2017-12-21T16:00:03.434Z,20.93
2017-12-21T16:02:30.756Z,21.77
2017-12-21T16:04:58.479Z,14.47
2017-12-21T16:07:25.791Z,15.47
2017-12-21T16:09:53.118Z,17.87
2017-12-21T16:12:20.568Z,17.00
2017-12-21T16:14:47.870Z,19.90
2017-12-21T16:17:15.509Z,19.03
2017-12-21T16:19:42.865Z,19.87
2017-12-21T16:22:10.236Z,23.60
2017-12-21T16:24:37.545Z,19.50
2017-12-21T16:27:04.929Z,22.70
2017-12-21T16:29:32.451Z,19.00
2017-12-21T16:31:59.771Z,20.30
2017-12-21T16:34:27.470Z,18.00
2017-12-21T16:36:54.780Z,17.90
2017-12-21T16:39:22.418Z,18.07
2017-12-21T16:41:50.132Z,20.13
2017-12-21T16:44:18.637Z,18.30
2017-12-21T16:46:46.242Z,16.17
2017-12-21T16:49:13.599Z,17.03
2017-12-21T16:51:41.246Z,16.53
2017-12-21T16:54:08.558Z,20.13
2017-12-21T16:56:35.908Z,18.53
2017-12-21T16:59:03.714Z,18.67
2017-12-21T17:01:31.070Z,19.10
2017-12-21T17:03:58.395Z,19.83
2017-12-21T17:06:27.519Z,19.77
2017-12-21T17:08:55.276Z,14.90
2017-12-21T17:11:25.098Z,18.73
2017-12-21T17:13:52.426Z,21.27
2017-12-21T17:16:19.847Z,19.03
2017-12-21T17:18:49.307Z,19.73
2017-12-21T17:21:17.154Z,18.27
2017-12-21T17:23:44.852Z,16.80
2017-12-21T17:26:12.210Z,19.23
2017-12-21T17:28:39.514Z,19.70
2017-12-21T17:31:06.858Z,19.67
2017-12-21T17:33:34.336Z,20.70
2017-12-21T17:36:01.739Z,21.37
2017-12-21T17:38:29.080Z,17.90
2017-12-21T17:40:56.463Z,24.00
2017-12-21T17:43:24.089Z,20.57
2017-12-21T17:45:51.806Z,26.63
2017-12-21T17:48:19.147Z,27.03
2017-12-21T17:50:46.805Z,24.90
2017-12-21T17:53:14.482Z,26.53
2017-12-21T17:55:41.802Z,25.07
2017-12-21T17:58:09.451Z,22.60
2017-12-21T18:00:36.823Z,23.30
2017-12-21T18:03:04.846Z,26.13
2017-12-21T18:05:32.233Z,24.63
2017-12-21T18:08:00.581Z,22.33
2017-12-21T18:10:27.979Z,23.40
2017-12-21T18:12:55.610Z,22.03
2017-12-21T18:15:23.298Z,20.70
2017-12-21T18:17:51.059Z,24.27
2017-12-21T18:20:18.518Z,21.07
2017-12-21T18:22:46.163Z,20.37
2017-12-21T18:25:13.605Z,23.40
2017-12-21T18:27:41.442Z,21.67
2017-12-21T18:30:08.768Z,21.77
2017-12-21T18:32:36.110Z,23.27
2017-12-21T18:35:03.767Z,21.07
2017-12-21T18:37:31.092Z,20.10
2017-12-21T18:39:58.810Z,19.90
2017-12-21T18:42:26.427Z,23.23
2017-12-21T18:44:54.203Z,22.70
2017-12-21T18:47:21.542Z,20.53
2017-12-21T18:49:48.863Z,22.27
2017-12-21T18:52:16.372Z,21.13
2017-12-21T18:54:43.736Z,23.23
2017-12-21T18:57:11.178Z,21.13
2017-12-21T18:59:38.510Z,21.47
2017-12-21T19:02:06.214Z,21.33
2017-12-21T19:04:33.590Z,26.87
2017-12-21T19:07:00.906Z,18.13
2017-12-21T19:09:28.270Z,18.93
2017-12-21T19:11:56.394Z,22.90
2017-12-21T19:14:23.736Z,19.60
2017-12-21T19:16:51.073Z,23.00
2017-12-21T19:19:18.708Z,20.47
2017-12-21T19:21:46.046Z,23.80
2017-12-21T19:24:13.371Z,23.80
2017-12-21T19:26:41.091Z,23.03
2017-12-21T19:29:08.454Z,23.20
2017-12-21T19:31:35.763Z,22.13
2017-12-21T19:34:03.091Z,24.53
2017-12-21T19:36:30.502Z,23.10
2017-12-21T19:38:57.816Z,26.63
2017-12-21T19:41:25.234Z,20.87
2017-12-21T19:43:52.899Z,25.43
2017-12-21T19:46:20.303Z,24.53
2017-12-21T19:48:47.974Z,24.57
2017-12-21T19:51:15.713Z,19.87
2017-12-21T19:53:43.031Z,23.27
2017-12-21T19:56:10.684Z,23.20
2017-12-21T19:58:38.349Z,24.77
2017-12-21T20:01:05.974Z,22.13
2017-12-21T20:03:33.706Z,20.50
2017-12-21T20:06:01.443Z,26.17
2017-12-21T20:08:29.086Z,21.60
2017-12-21T20:10:56.384Z,19.30
2017-12-21T20:13:23.861Z,21.90
2017-12-21T20:15:51.539Z,20.53
2017-12-21T20:18:18.856Z,23.47
2017-12-21T20:20:46.242Z,19.10
2017-12-21T20:23:13.552Z,22.80
2017-12-21T20:25:40.873Z,18.17
2017-12-21T20:28:08.212Z,23.97
2017-12-21T20:30:35.525Z,21.30
2017-12-21T20:33:02.827Z,21.43
2017-12-21T20:35:30.362Z,25.27
2017-12-21T20:37:58.137Z,22.23
2017-12-21T20:40:25.688Z,26.10
2017-12-21T20:42:53.051Z,25.23
2017-12-21T20:45:20.502Z,30.40
2017-12-21T20:47:48.219Z,27.10
2017-12-21T20:50:15.605Z,27.47
2017-12-21T20:52:42.918Z,25.27
2017-12-21T20:55:10.314Z,26.93
2017-12-21T20:57:37.754Z,29.13
2017-12-21T21:00:05.070Z,30.17
2017-12-21T21:02:32.593Z,27.83
2017-12-21T21:04:59.973Z,29.13
2017-12-21T21:07:27.303Z,31.60
2017-12-21T21:09:55.011Z,34.40
2017-12-21T21:12:22.328Z,32.90
2017-12-21T21:14:49.692Z,30.70
2017-12-21T21:17:17.048Z,29.63
2017-12-21T21:19:44.375Z,34.47
2017-12-21T21:22:11.858Z,30.50
2017-12-21T21:24:39.234Z,36.70
2017-12-21T21:27:06.938Z,31.67
2017-12-21T21:29:34.631Z,33.67
2017-12-21T21:32:02.022Z,39.37
2017-12-21T21:34:29.551Z,38.27
2017-12-21T21:36:56.991Z,39.60
2017-12-21T21:39:24.416Z,37.60
2017-12-21T21:41:51.755Z,39.13
2017-12-21T21:44:19.069Z,40.20
2017-12-21T21:46:46.434Z,43.13
2017-12-21T21:49:14.097Z,42.27
2017-12-21T21:51:41.446Z,41.53
2017-12-21T21:54:08.820Z,37.23
2017-12-21T21:56:36.173Z,39.13
2017-12-21T21:59:03.809Z,40.67
2017-12-21T22:01:31.181Z,41.30
2017-12-21T22:03:58.486Z,47.10
2017-12-21T22:06:25.806Z,41.30
2017-12-21T22:08:53.469Z,43.93
2017-12-21T22:11:21.089Z,50.50
2017-12-21T22:13:48.530Z,45.87
2017-12-21T22:16:15.927Z,46.07
2017-12-21T22:18:43.566Z,45.43
2017-12-21T22:21:10.928Z,48.30
2017-12-21T22:23:38.251Z,46.37
2017-12-21T22:26:06.031Z,46.30
2017-12-21T22:28:33.394Z,47.00
2017-12-21T22:31:00.723Z,50.10
2017-12-21T22:33:28.127Z,44.43
2017-12-21T22:35:55.964Z,49.70
2017-12-21T22:38:23.326Z,51.03
2017-12-21T22:40:50.642Z,47.30
2017-12-21T22:43:18.023Z,48.03
2017-12-21T22:45:45.398Z,47.90
2017-12-21T22:48:12.714Z,52.63
2017-12-21T22:50:40.602Z,44.37
2017-12-21T22:53:08.275Z,54.60
2017-12-21T22:55:35.586Z,44.90
2017-12-21T22:58:03.051Z,38.97
2017-12-21T23:00:30.744Z,41.00
2017-12-21T23:02:58.060Z,43.40
2017-12-21T23:05:25.398Z,41.20
2017-12-21T23:07:52.742Z,47.67
2017-12-21T23:10:20.402Z,36.50
2017-12-21T23:12:48.050Z,39.57
2017-12-21T23:15:15.411Z,42.23
2017-12-21T23:17:43.083Z,42.27
2017-12-21T23:20:10.514Z,37.57
2017-12-21T23:22:37.821Z,34.60
2017-12-21T23:25:05.173Z,35.63
2017-12-21T23:27:32.486Z,38.33
2017-12-21T23:30:00.127Z,43.27
2017-12-21T23:32:27.490Z,49.10
2017-12-21T23:34:54.806Z,47.90
2017-12-21T23:37:22.204Z,40.97
2017-12-21T23:39:49.909Z,35.60
2017-12-21T23:42:17.226Z,39.10
2017-12-21T23:44:44.939Z,40.60
2017-12-21T23:47:12.583Z,41.20
2017-12-21T23:49:39.907Z,40.80
2017-12-21T23:52:07.226Z,39.40
2017-12-21T23:54:34.682Z,37.87
2017-12-21T23:57:02.062Z,35.90
2017-12-21T23:59:29.438Z,40.57
